createdAt,value
2017-10-24T03:45:26.399Z,33.70
2017-10-24T03:47:53.150Z,30.30
2017-10-24T03:50:19.922Z,27.30
2017-10-24T03:52:46.709Z,32.03
2017-10-24T03:55:13.503Z,31.67
2017-10-24T03:57:40.279Z,26.47
2017-10-24T04:00:07.104Z,33.33
2017-10-24T04:02:33.869Z,26.60
2017-10-24T04:05:00.676Z,38.17
2017-10-24T04:07:27.485Z,27.97
2017-10-24T04:09:54.258Z,29.87
2017-10-24T04:12:21.016Z,30.50
2017-10-24T04:14:47.851Z,31.13
2017-10-24T04:17:14.602Z,34.33
2017-10-24T04:19:41.433Z,35.60
2017-10-24T04:22:08.267Z,28.37
2017-10-24T04:24:35.053Z,35.77
2017-10-24T04:27:01.847Z,32.07
2017-10-24T04:29:28.702Z,32.20
2017-10-24T04:31:55.524Z,30.47
2017-10-24T04:34:22.314Z,32.50
2017-10-24T04:36:49.159Z,34.40
2017-10-24T04:39:16.178Z,30.97
2017-10-24T04:41:42.974Z,29.40
2017-10-24T04:44:09.770Z,30.37
2017-10-24T04:46:36.533Z,42.33
2017-10-24T04:49:03.388Z,28.23
2017-10-24T04:51:30.207Z,31.50
2017-10-24T04:53:56.996Z,28.57
2017-10-24T04:56:23.794Z,31.70
2017-10-24T04:58:50.642Z,38.77
2017-10-24T05:01:17.668Z,29.27
2017-10-24T05:03:44.435Z,30.90
2017-10-24T05:06:11.384Z,33.23
2017-10-24T05:08:38.183Z,40.17
2017-10-24T05:11:04.983Z,33.70
2017-10-24T05:13:31.827Z,29.37
2017-10-24T05:15:58.608Z,37.50
2017-10-24T05:18:25.359Z,37.50
2017-10-24T05:20:52.191Z,35.40
2017-10-24T05:23:18.951Z,29.90
2017-10-24T05:25:45.694Z,33.70
2017-10-24T05:28:12.500Z,32.30
2017-10-24T05:30:39.279Z,38.07
2017-10-24T05:33:06.058Z,36.10
2017-10-24T05:35:32.866Z,36.13
2017-10-24T05:37:59.621Z,38.13
2017-10-24T05:40:26.400Z,33.03
2017-10-24T05:42:53.202Z,34.67
2017-10-24T05:45:19.985Z,36.13
2017-10-24T05:47:46.766Z,36.83
2017-10-24T05:50:13.570Z,30.67
2017-10-24T05:52:40.352Z,38.40
2017-10-24T05:55:07.115Z,34.00
2017-10-24T05:57:33.934Z,34.50
2017-10-24T06:00:00.782Z,28.57
2017-10-24T06:02:27.557Z,32.60
2017-10-24T06:04:54.405Z,34.27
2017-10-24T06:07:21.194Z,35.40
2017-10-24T06:09:47.954Z,38.77
2017-10-24T06:12:14.756Z,29.57
2017-10-24T06:14:41.529Z,34.83
2017-10-24T06:17:08.334Z,32.90
2017-10-24T06:19:35.173Z,35.20
2017-10-24T06:22:01.942Z,46.20
2017-10-24T06:24:28.738Z,35.20
2017-10-24T06:26:55.537Z,35.23
2017-10-24T06:29:22.287Z,37.37
2017-10-24T06:31:49.039Z,39.53
2017-10-24T06:34:15.835Z,39.80
2017-10-24T06:36:42.584Z,41.03
2017-10-24T06:39:09.506Z,40.30
2017-10-24T06:41:36.335Z,35.03
2017-10-24T06:44:03.258Z,38.47
2017-10-24T06:46:30.110Z,29.67
2017-10-24T06:48:56.917Z,27.90
2017-10-24T06:51:23.654Z,33.70
2017-10-24T06:53:50.558Z,34.73
2017-10-24T06:56:17.419Z,29.90
2017-10-24T06:58:44.279Z,31.20
2017-10-24T07:01:11.066Z,34.63
2017-10-24T07:03:37.908Z,32.00
2017-10-24T07:06:05.054Z,32.93
2017-10-24T07:08:31.846Z,41.10
2017-10-24T07:11:08.716Z,38.80
2017-10-24T07:13:35.976Z,33.57
2017-10-24T07:16:02.809Z,46.50
2017-10-24T07:18:29.970Z,35.37
2017-10-24T07:20:56.744Z,40.90
2017-10-24T07:23:23.586Z,37.90
2017-10-24T07:25:50.379Z,36.13
2017-10-24T07:28:17.233Z,34.70
2017-10-24T07:30:44.109Z,36.00
2017-10-24T07:33:10.972Z,38.30
2017-10-24T07:35:37.749Z,35.83
2017-10-24T07:38:04.559Z,30.20
2017-10-24T07:40:31.489Z,30.10
2017-10-24T07:42:58.315Z,33.47
2017-10-24T07:45:25.122Z,29.30
2017-10-24T07:47:52.000Z,32.67
2017-10-24T07:50:18.762Z,35.10
2017-10-24T07:52:45.547Z,29.33
2017-10-24T07:55:12.596Z,35.37
2017-10-24T07:57:39.502Z,29.23
2017-10-24T08:00:06.501Z,29.07
2017-10-24T08:02:33.606Z,32.20
2017-10-24T08:05:00.527Z,36.73
2017-10-24T08:07:27.301Z,34.73
2017-10-24T08:09:54.130Z,35.70
2017-10-24T08:12:20.917Z,32.20
2017-10-24T08:14:47.682Z,41.33
2017-10-24T08:17:14.521Z,30.80
2017-10-24T08:19:41.288Z,31.63
2017-10-24T08:22:08.110Z,30.53
2017-10-24T08:24:34.952Z,33.03
2017-10-24T08:27:01.766Z,35.20
2017-10-24T08:29:28.537Z,26.37
2017-10-24T08:31:55.575Z,27.87
2017-10-24T08:34:22.393Z,29.13
2017-10-24T08:36:49.280Z,25.43
2017-10-24T08:39:16.151Z,27.70
2017-10-24T08:41:43.080Z,36.03
2017-10-24T08:44:19.907Z,36.50
2017-10-24T08:46:46.745Z,33.47
2017-10-24T08:49:13.592Z,30.40
2017-10-24T08:51:40.447Z,30.07
2017-10-24T08:54:07.279Z,31.50
2017-10-24T08:56:34.093Z,30.97
2017-10-24T08:59:01.005Z,37.33
2017-10-24T09:01:27.854Z,32.30
2017-10-24T09:03:54.727Z,29.87
2017-10-24T09:06:37.573Z,25.80
2017-10-24T09:09:07.214Z,26.77
2017-10-24T09:11:39.931Z,35.93
2017-10-24T09:14:17.645Z,27.97
2017-10-24T09:16:55.556Z,30.30
2017-10-24T09:19:28.373Z,30.00
2017-10-24T09:21:55.251Z,30.93
2017-10-24T09:24:22.202Z,28.50
2017-10-24T09:26:49.106Z,31.40
2017-10-24T09:29:16.135Z,28.83
2017-10-24T09:31:42.993Z,27.30
2017-10-24T09:34:09.862Z,28.33
2017-10-24T09:36:37.377Z,28.40
2017-10-24T09:39:04.201Z,31.67
2017-10-24T09:41:31.025Z,39.90
2017-10-24T09:43:57.971Z,30.20
2017-10-24T09:46:28.640Z,27.37
2017-10-24T09:48:55.411Z,24.50
2017-10-24T09:51:28.120Z,26.50
2017-10-24T09:53:54.930Z,30.43
2017-10-24T09:56:27.415Z,26.70
2017-10-24T09:58:54.380Z,22.23
2017-10-24T10:01:23.094Z,31.40
2017-10-24T10:03:49.942Z,24.40
2017-10-24T10:06:19.723Z,30.37
2017-10-24T10:08:46.546Z,22.30
2017-10-24T10:11:13.612Z,31.80
2017-10-24T10:13:40.526Z,29.33
2017-10-24T10:16:07.373Z,26.33
2017-10-24T10:18:34.282Z,26.37
2017-10-24T10:21:01.162Z,27.80
2017-10-24T10:23:27.982Z,25.83
2017-10-24T10:25:55.621Z,29.27
2017-10-24T10:28:22.407Z,27.20
2017-10-24T10:30:49.203Z,27.83
2017-10-24T10:33:16.151Z,27.47
2017-10-24T10:35:42.994Z,31.90
2017-10-24T10:38:09.774Z,28.57
2017-10-24T10:40:36.588Z,29.63
2017-10-24T10:43:03.419Z,26.87
2017-10-24T10:45:30.261Z,24.90
2017-10-24T10:47:57.025Z,22.63
2017-10-24T10:50:23.893Z,27.60
2017-10-24T10:52:50.727Z,28.70
2017-10-24T10:55:17.568Z,23.37
2017-10-24T10:57:45.749Z,30.03
2017-10-24T11:00:12.667Z,25.10
2017-10-24T11:02:39.432Z,27.03
2017-10-24T11:05:07.225Z,24.80
2017-10-24T11:07:34.143Z,23.50
2017-10-24T11:10:00.986Z,30.20
2017-10-24T11:12:27.779Z,26.57
2017-10-24T11:14:54.702Z,25.63
2017-10-24T11:17:21.492Z,26.30
2017-10-24T11:19:48.331Z,22.50
2017-10-24T11:22:15.097Z,22.47
2017-10-24T11:24:41.886Z,25.17
2017-10-24T11:27:08.690Z,23.93
2017-10-24T11:29:35.861Z,22.20
2017-10-24T11:32:02.675Z,26.53
2017-10-24T11:34:29.539Z,26.90
2017-10-24T11:36:56.310Z,25.03
2017-10-24T11:39:23.198Z,26.10
2017-10-24T11:41:50.027Z,24.87
2017-10-24T11:44:16.795Z,21.43
2017-10-24T11:46:43.688Z,29.05
2017-10-24T11:49:10.610Z,28.53
2017-10-24T11:51:37.387Z,26.77
2017-10-24T11:54:04.196Z,19.97
2017-10-24T11:56:30.983Z,25.80
2017-10-24T11:58:57.838Z,26.20
2017-10-24T12:01:24.663Z,22.80
2017-10-24T12:03:51.476Z,29.53
2017-10-24T12:06:18.239Z,23.47
2017-10-24T12:08:45.088Z,26.27
2017-10-24T12:11:11.931Z,27.53
2017-10-24T12:13:38.735Z,28.13
2017-10-24T12:16:05.538Z,23.53
2017-10-24T12:18:32.397Z,24.50
2017-10-24T12:20:59.300Z,28.43
2017-10-24T12:23:26.128Z,31.77
2017-10-24T12:25:52.968Z,25.67
2017-10-24T12:28:19.787Z,27.33
2017-10-24T12:30:46.607Z,27.50
2017-10-24T12:33:13.447Z,26.33
2017-10-24T12:35:40.215Z,28.43
2017-10-24T12:38:07.104Z,30.53
2017-10-24T12:40:33.925Z,21.53
2017-10-24T12:43:00.724Z,24.47
2017-10-24T12:45:27.505Z,20.50
2017-10-24T12:47:54.352Z,19.17
2017-10-24T12:50:21.134Z,24.00
2017-10-24T12:52:47.933Z,22.57
2017-10-24T12:55:14.797Z,20.07
2017-10-24T12:57:43.232Z,19.53
2017-10-24T13:00:10.004Z,21.00
2017-10-24T13:02:36.803Z,19.87
2017-10-24T13:05:03.932Z,19.47
2017-10-24T13:07:30.703Z,16.10
2017-10-24T13:09:57.524Z,17.50
2017-10-24T13:12:24.311Z,18.30
2017-10-24T13:14:51.101Z,19.80
2017-10-24T13:17:17.915Z,16.87
2017-10-24T13:19:44.686Z,12.40
2017-10-24T13:22:11.484Z,16.90
2017-10-24T13:24:38.316Z,14.50
2017-10-24T13:27:05.079Z,19.27
2017-10-24T13:29:31.819Z,11.20
2017-10-24T13:31:59.469Z,13.80
2017-10-24T13:34:26.267Z,15.93
2017-10-24T13:36:53.101Z,16.90
2017-10-24T13:39:19.891Z,18.90
2017-10-24T13:41:46.635Z,18.63
2017-10-24T13:44:13.401Z,13.27
2017-10-24T13:46:40.281Z,17.53
2017-10-24T13:49:07.085Z,14.40
2017-10-24T13:51:33.920Z,13.93
2017-10-24T13:54:00.783Z,13.37
2017-10-24T13:56:27.591Z,14.77
2017-10-24T13:58:54.420Z,13.27
2017-10-24T14:01:21.282Z,14.10
2017-10-24T14:03:48.084Z,12.80
2017-10-24T14:06:32.601Z,14.73
2017-10-24T14:09:04.948Z,11.97
2017-10-24T14:11:31.760Z,12.73
2017-10-24T14:13:58.569Z,12.07
2017-10-24T14:16:25.340Z,13.50
2017-10-24T14:18:52.216Z,13.23
2017-10-24T14:21:19.051Z,7.90
2017-10-24T14:23:46.106Z,12.70
2017-10-24T14:26:12.870Z,10.37
2017-10-24T14:28:39.782Z,11.93
2017-10-24T14:31:06.551Z,8.40
2017-10-24T14:33:33.339Z,7.33
2017-10-24T14:36:00.118Z,9.23
2017-10-24T14:38:26.887Z,10.07
2017-10-24T14:40:53.875Z,9.27
2017-10-24T14:43:20.698Z,7.53
2017-10-24T14:45:47.564Z,8.83
2017-10-24T14:48:14.474Z,8.03
2017-10-24T14:50:41.458Z,9.00
2017-10-24T14:53:08.290Z,9.73
2017-10-24T14:55:35.072Z,9.20
2017-10-24T14:58:01.932Z,8.07
2017-10-24T15:00:28.686Z,11.67
2017-10-24T15:02:55.774Z,8.03
2017-10-24T15:05:22.595Z,9.53
2017-10-24T15:07:49.457Z,9.97
2017-10-24T15:10:16.230Z,8.70
2017-10-24T15:12:43.095Z,10.23
2017-10-24T15:15:09.874Z,11.53
2017-10-24T15:17:36.639Z,11.07
2017-10-24T15:20:03.557Z,10.93
2017-10-24T15:22:30.392Z,10.07
2017-10-24T15:24:57.184Z,10.50
2017-10-24T15:27:23.977Z,9.40
2017-10-24T15:29:51.082Z,10.53
2017-10-24T15:32:17.855Z,13.20
2017-10-24T15:34:44.690Z,12.27
2017-10-24T15:37:11.447Z,12.97
2017-10-24T15:39:38.294Z,10.53
2017-10-24T15:42:05.107Z,11.07
2017-10-24T15:44:31.924Z,12.50
2017-10-24T15:46:58.943Z,14.17
2017-10-24T15:49:25.744Z,12.60
2017-10-24T15:51:52.562Z,13.33
2017-10-24T15:54:19.336Z,15.80
2017-10-24T15:56:46.201Z,14.47
2017-10-24T15:59:12.962Z,16.03
2017-10-24T16:01:39.731Z,14.77
2017-10-24T16:04:06.551Z,20.40
2017-10-24T16:06:33.321Z,16.07
2017-10-24T16:09:00.086Z,17.67
2017-10-24T16:11:26.930Z,20.00
2017-10-24T16:13:53.709Z,15.13
2017-10-24T16:16:20.510Z,16.63
2017-10-24T16:18:47.331Z,19.43
2017-10-24T16:21:14.126Z,17.37
2017-10-24T16:23:40.903Z,22.00
2017-10-24T16:26:07.711Z,21.23
2017-10-24T16:28:34.485Z,23.50
2017-10-24T16:31:01.260Z,16.50
2017-10-24T16:33:28.071Z,23.63
2017-10-24T16:35:54.879Z,21.83
2017-10-24T16:38:21.699Z,25.80
2017-10-24T16:40:48.559Z,21.67
2017-10-24T16:43:15.360Z,23.57
2017-10-24T16:45:42.116Z,30.30
2017-10-24T16:48:08.945Z,23.37
2017-10-24T16:50:35.748Z,23.37
2017-10-24T16:53:02.523Z,27.53
2017-10-24T16:55:29.348Z,25.50
2017-10-24T16:57:56.134Z,27.73
2017-10-24T17:00:23.034Z,24.47
2017-10-24T17:02:50.643Z,30.87
2017-10-24T17:05:17.416Z,25.90
2017-10-24T17:07:44.284Z,27.03
2017-10-24T17:10:11.140Z,30.37
2017-10-24T17:12:37.919Z,27.83
2017-10-24T17:15:04.959Z,28.33
2017-10-24T17:17:31.886Z,30.87
2017-10-24T17:19:59.172Z,31.30
2017-10-24T17:22:26.213Z,32.93
2017-10-24T17:24:54.305Z,32.60
2017-10-24T17:27:21.247Z,32.70
2017-10-24T17:29:48.196Z,33.20
2017-10-24T17:32:15.032Z,31.60
2017-10-24T17:34:41.888Z,31.37
2017-10-24T17:37:09.371Z,33.33
2017-10-24T17:39:36.292Z,31.57
2017-10-24T17:42:03.178Z,31.40
2017-10-24T17:44:29.954Z,31.60
2017-10-24T17:47:00.789Z,30.73
2017-10-24T17:49:27.727Z,33.57
2017-10-24T17:51:54.603Z,33.83
2017-10-24T17:54:21.416Z,34.87
2017-10-24T17:56:48.328Z,28.03
2017-10-24T17:59:15.119Z,40.97
2017-10-24T18:01:41.966Z,28.53
2017-10-24T18:04:08.755Z,28.80
2017-10-24T18:06:35.577Z,33.67
2017-10-24T18:09:02.662Z,34.53
2017-10-24T18:11:29.518Z,27.30
2017-10-24T18:13:56.363Z,28.07
2017-10-24T18:16:23.277Z,30.63
2017-10-24T18:18:50.201Z,30.97
2017-10-24T18:21:17.025Z,28.23
2017-10-24T18:23:43.836Z,28.50
2017-10-24T18:26:10.663Z,30.80
2017-10-24T18:28:37.489Z,27.73
2017-10-24T18:31:04.322Z,28.00
2017-10-24T18:33:31.185Z,33.23
2017-10-24T18:35:57.998Z,34.57
2017-10-24T18:38:25.908Z,30.83
2017-10-24T18:40:52.839Z,27.90
2017-10-24T18:43:19.772Z,33.20
2017-10-24T18:45:46.660Z,33.07
2017-10-24T18:48:13.526Z,30.47
2017-10-24T18:50:40.430Z,35.27
2017-10-24T18:53:07.331Z,31.23
2017-10-24T18:55:34.891Z,29.97
2017-10-24T18:58:01.907Z,38.33
2017-10-24T19:00:28.786Z,33.83
2017-10-24T19:02:55.709Z,31.00
2017-10-24T19:05:22.589Z,33.77
2017-10-24T19:07:50.113Z,42.20
2017-10-24T19:10:16.960Z,39.03
2017-10-24T19:12:43.807Z,40.03
2017-10-24T19:15:10.899Z,41.97
2017-10-24T19:17:37.817Z,39.73
2017-10-24T19:20:04.705Z,36.23
2017-10-24T19:22:31.637Z,39.23
2017-10-24T19:24:58.407Z,39.30
2017-10-24T19:27:25.196Z,37.40
2017-10-24T19:29:52.002Z,42.63
2017-10-24T19:32:18.854Z,40.37
2017-10-24T19:34:45.706Z,35.63
2017-10-24T19:37:12.523Z,37.47
2017-10-24T19:39:39.317Z,38.40
2017-10-24T19:42:06.197Z,41.50
2017-10-24T19:44:33.060Z,42.80
2017-10-24T19:46:59.830Z,40.13
2017-10-24T19:49:26.775Z,43.17
2017-10-24T19:51:53.658Z,46.93
2017-10-24T19:54:20.451Z,30.83
2017-10-24T19:56:47.355Z,28.47
2017-10-24T19:59:14.344Z,33.30
2017-10-24T20:01:41.118Z,29.93
2017-10-24T20:04:07.903Z,30.80
2017-10-24T20:06:34.853Z,27.73
2017-10-24T20:09:01.672Z,37.70
2017-10-24T20:11:28.746Z,27.23
2017-10-24T20:13:55.603Z,28.50
2017-10-24T20:16:23.515Z,26.30
2017-10-24T20:18:50.340Z,20.40
2017-10-24T20:21:17.143Z,16.47
2017-10-24T20:23:43.972Z,18.43
2017-10-24T20:26:10.761Z,21.90
2017-10-24T20:28:37.570Z,14.73
2017-10-24T20:31:04.347Z,16.73
2017-10-24T20:33:31.138Z,16.83
2017-10-24T20:35:57.963Z,12.40
2017-10-24T20:38:24.730Z,11.63
2017-10-24T20:40:51.573Z,12.73
2017-10-24T20:43:18.371Z,12.23
2017-10-24T20:45:45.133Z,20.07
2017-10-24T20:48:12.059Z,11.10
2017-10-24T20:50:38.880Z,11.10
2017-10-24T20:53:05.703Z,12.70
2017-10-24T20:55:32.463Z,11.27
2017-10-24T20:57:59.267Z,9.00
2017-10-24T21:00:26.047Z,13.07
2017-10-24T21:02:52.787Z,9.63
2017-10-24T21:05:19.584Z,10.80
2017-10-24T21:07:46.415Z,11.40
2017-10-24T21:10:13.235Z,7.90
2017-10-24T21:12:40.045Z,9.23
2017-10-24T21:15:06.911Z,7.37
2017-10-24T21:17:33.747Z,7.10
2017-10-24T21:20:00.576Z,7.53
2017-10-24T21:22:27.334Z,10.30
2017-10-24T21:24:54.135Z,6.40
2017-10-24T21:27:20.959Z,7.70
2017-10-24T21:29:47.764Z,12.30
2017-10-24T21:32:14.785Z,18.43
2017-10-24T21:34:41.590Z,7.63
2017-10-24T21:37:08.390Z,13.23
2017-10-24T21:39:35.150Z,10.50
2017-10-24T21:42:02.010Z,11.80
2017-10-24T21:44:28.770Z,10.87
2017-10-24T21:46:55.511Z,18.13
2017-10-24T21:49:22.289Z,16.27
2017-10-24T21:51:49.053Z,21.57
2017-10-24T21:54:15.804Z,15.50
2017-10-24T21:56:42.618Z,20.53
2017-10-24T21:59:09.405Z,23.60
2017-10-24T22:01:36.198Z,32.27
2017-10-24T22:04:02.996Z,26.60
2017-10-24T22:06:29.811Z,30.73
2017-10-24T22:08:56.581Z,28.20
2017-10-24T22:11:23.371Z,26.03
